Terminal Aerodrome Forecast
Issued by NWS Cleveland, OH

Home | Current Version | Previous Version | Graphics & Text | Print | Product List | Glossary Off
Versions: 1 2 3 4 5 6 7 8 9 10 11 12 13 14 15

000
FTUS41 KCLE 221141
TAFCAK
TAF
KCAK 221141Z 2212/2312 21007KT P6SM FEW045 SCT200
     FM221800 23014KT P6SM -TSRA SCT040CB BKN090
     FM222200 23014KT P6SM -SHRA VCTS SCT035CB BKN090
     FM230100 28010KT P6SM BKN035
     FM230400 30008KT P6SM SCT045
     FM230900 VRB03KT P6SM FEW150=

USA.gov is the U.S. government's official web portal to all federal, state and local government web resources and services.